sensor_id;sensor_type;location;lat;lon;timestamp;temperature;humidity
5759;DHT22;2904;48.788;9.196;2022-08-21T00:01:44;18.20;99.90
5759;DHT22;2904;48.788;9.196;2022-08-21T00:04:10;18.10;99.90
5759;DHT22;2904;48.788;9.196;2022-08-21T00:06:37;18.10;99.90
5759;DHT22;2904;48.788;9.196;2022-08-21T00:09:04;18.10;99.90
5759;DHT22;2904;48.788;9.196;2022-08-21T00:11:30;18.00;99.90
5759;DHT22;2904;48.788;9.196;2022-08-21T00:13:56;18.00;99.90
5759;DHT22;2904;48.788;9.196;2022-08-21T00:16:22;17.90;99.90
5759;DHT22;2904;48.788;9.196;2022-08-21T00:18:48;17.90;99.90
5759;DHT22;2904;48.788;9.196;2022-08-21T00:21:15;17.90;99.90
5759;DHT22;2904;48.788;9.196;2022-08-21T00:23:41;17.90;99.90
5759;DHT22;2904;48.788;9.196;2022-08-21T00:26:07;18.00;99.90
5759;DHT22;2904;48.788;9.196;2022-08-21T00:28:33;18.00;99.90
5759;DHT22;2904;48.788;9.196;2022-08-21T00:31:00;17.90;99.90
5759;DHT22;2904;48.788;9.196;2022-08-21T00:33:26;17.90;99.90
5759;DHT22;2904;48.788;9.196;2022-08-21T00:35:52;17.80;99.90
5759;DHT22;2904;48.788;9.196;2022-08-21T00:38:18;17.80;99.90
5759;DHT22;2904;48.788;9.196;2022-08-21T00:40:51;17.70;99.90
5759;DHT22;2904;48.788;9.196;2022-08-21T00:43:23;17.60;99.90
5759;DHT22;2904;48.788;9.196;2022-08-21T00:45:50;17.70;99.90
5759;DHT22;2904;48.788;9.196;2022-08-21T00:48:16;17.60;99.90
5759;DHT22;2904;48.788;9.196;2022-08-21T00:50:46;17.60;99.90
5759;DHT22;2904;48.788;9.196;2022-08-21T00:53:14;17.60;99.90
5759;DHT22;2904;48.788;9.196;2022-08-21T00:55:41;17.50;99.90
5759;DHT22;2904;48.788;9.196;2022-08-21T00:58:08;17.50;99.90
5759;DHT22;2904;48.788;9.196;2022-08-21T01:00:37;17.40;99.90
5759;DHT22;2904;48.788;9.196;2022-08-21T01:03:11;17.40;99.90
5759;DHT22;2904;48.788;9.196;2022-08-21T01:05:40;17.40;99.90
5759;DHT22;2904;48.788;9.196;2022-08-21T01:08:07;17.40;99.90
5759;DHT22;2904;48.788;9.196;2022-08-21T01:10:34;17.40;99.90
5759;DHT22;2904;48.788;9.196;2022-08-21T01:13:01;17.30;99.90
5759;DHT22;2904;48.788;9.196;2022-08-21T01:15:35;17.30;99.90
5759;DHT22;2904;48.788;9.196;2022-08-21T01:18:03;17.30;99.90
5759;DHT22;2904;48.788;9.196;2022-08-21T01:20:30;17.30;99.90
5759;DHT22;2904;48.788;9.196;2022-08-21T01:22:56;17.30;99.90
5759;DHT22;2904;48.788;9.196;2022-08-21T01:25:21;17.30;99.90
5759;DHT22;2904;48.788;9.196;2022-08-21T01:27:47;17.20;99.90
5759;DHT22;2904;48.788;9.196;2022-08-21T01:30:19;17.20;99.90
5759;DHT22;2904;48.788;9.196;2022-08-21T01:32:46;17.10;99.90
5759;DHT22;2904;48.788;9.196;2022-08-21T01:35:14;17.10;99.90
5759;DHT22;2904;48.788;9.196;2022-08-21T01:37:40;17.00;99.90
5759;DHT22;2904;48.788;9.196;2022-08-21T01:40:07;16.90;99.90
5759;DHT22;2904;48.788;9.196;2022-08-21T01:42:33;16.90;99.90
5759;DHT22;2904;48.788;9.196;2022-08-21T01:44:59;17.00;99.90
5759;DHT22;2904;48.788;9.196;2022-08-21T01:47:25;16.90;99.90
5759;DHT22;2904;48.788;9.196;2022-08-21T01:49:51;16.90;99.90
5759;DHT22;2904;48.788;9.196;2022-08-21T01:52:17;17.00;99.90
5759;DHT22;2904;48.788;9.196;2022-08-21T01:54:43;16.90;99.90
5759;DHT22;2904;48.788;9.196;2022-08-21T01:57:10;16.90;99.90
5759;DHT22;2904;48.788;9.196;2022-08-21T01:59:36;16.90;99.90
5759;DHT22;2904;48.788;9.196;2022-08-21T02:02:03;16.90;99.90
5759;DHT22;2904;48.788;9.196;2022-08-21T02:04:28;16.90;99.90
5759;DHT22;2904;48.788;9.196;2022-08-21T02:06:55;16.90;99.90
5759;DHT22;2904;48.788;9.196;2022-08-21T02:09:21;16.90;99.90
5759;DHT22;2904;48.788;9.196;2022-08-21T02:11:47;16.90;99.90
5759;DHT22;2904;48.788;9.196;2022-08-21T02:14:14;16.80;99.90
5759;DHT22;2904;48.788;9.196;2022-08-21T02:16:44;16.80;99.90
5759;DHT22;2904;48.788;9.196;2022-08-21T02:19:11;16.80;99.90
5759;DHT22;2904;48.788;9.196;2022-08-21T02:21:37;16.80;99.90
5759;DHT22;2904;48.788;9.196;2022-08-21T02:24:03;16.80;99.90
5759;DHT22;2904;48.788;9.196;2022-08-21T02:26:29;16.70;99.90
5759;DHT22;2904;48.788;9.196;2022-08-21T02:28:54;16.70;99.90
5759;DHT22;2904;48.788;9.196;2022-08-21T02:31:20;16.60;99.90
5759;DHT22;2904;48.788;9.196;2022-08-21T02:33:46;16.50;99.90
5759;DHT22;2904;48.788;9.196;2022-08-21T02:36:12;16.50;99.90
5759;DHT22;2904;48.788;9.196;2022-08-21T02:38:39;16.40;99.90
5759;DHT22;2904;48.788;9.196;2022-08-21T02:41:07;16.40;99.90
5759;DHT22;2904;48.788;9.196;2022-08-21T02:43:33;16.40;99.90
5759;DHT22;2904;48.788;9.196;2022-08-21T02:46:00;16.40;99.90
5759;DHT22;2904;48.788;9.196;2022-08-21T02:48:28;16.30;99.90
5759;DHT22;2904;48.788;9.196;2022-08-21T02:51:09;16.30;99.90
5759;DHT22;2904;48.788;9.196;2022-08-21T02:53:36;16.30;99.90
5759;DHT22;2904;48.788;9.196;2022-08-21T02:56:05;16.30;99.90
5759;DHT22;2904;48.788;9.196;2022-08-21T02:58:37;16.20;99.90
5759;DHT22;2904;48.788;9.196;2022-08-21T03:01:04;16.20;99.90
5759;DHT22;2904;48.788;9.196;2022-08-21T03:03:30;16.40;99.90
5759;DHT22;2904;48.788;9.196;2022-08-21T03:05:56;16.10;99.90
5759;DHT22;2904;48.788;9.196;2022-08-21T03:08:22;16.10;99.90
5759;DHT22;2904;48.788;9.196;2022-08-21T03:10:52;16.10;99.90
5759;DHT22;2904;48.788;9.196;2022-08-21T03:13:19;16.00;99.90
5759;DHT22;2904;48.788;9.196;2022-08-21T03:15:46;16.00;99.90
5759;DHT22;2904;48.788;9.196;2022-08-21T03:18:13;16.00;99.90
5759;DHT22;2904;48.788;9.196;2022-08-21T03:20:41;16.00;99.90
5759;DHT22;2904;48.788;9.196;2022-08-21T03:23:07;15.90;99.90
5759;DHT22;2904;48.788;9.196;2022-08-21T03:25:34;15.90;99.90
5759;DHT22;2904;48.788;9.196;2022-08-21T03:28:01;15.90;99.90
5759;DHT22;2904;48.788;9.196;2022-08-21T03:30:27;15.90;99.90
5759;DHT22;2904;48.788;9.196;2022-08-21T03:32:54;15.90;99.90
5759;DHT22;2904;48.788;9.196;2022-08-21T03:35:20;15.80;99.90
5759;DHT22;2904;48.788;9.196;2022-08-21T03:37:46;15.80;99.90
5759;DHT22;2904;48.788;9.196;2022-08-21T03:40:14;15.70;99.90
5759;DHT22;2904;48.788;9.196;2022-08-21T03:42:40;15.70;99.90
5759;DHT22;2904;48.788;9.196;2022-08-21T03:45:07;15.70;99.90
5759;DHT22;2904;48.788;9.196;2022-08-21T03:47:33;15.70;99.90
5759;DHT22;2904;48.788;9.196;2022-08-21T03:49:59;15.70;99.90
5759;DHT22;2904;48.788;9.196;2022-08-21T03:52:25;15.70;99.90
5759;DHT22;2904;48.788;9.196;2022-08-21T03:54:50;15.60;99.90
5759;DHT22;2904;48.788;9.196;2022-08-21T03:57:17;15.70;99.90
5759;DHT22;2904;48.788;9.196;2022-08-21T03:59:43;15.60;99.90
5759;DHT22;2904;48.788;9.196;2022-08-21T04:02:10;15.60;99.90
5759;DHT22;2904;48.788;9.196;2022-08-21T04:04:36;15.60;99.90
5759;DHT22;2904;48.788;9.196;2022-08-21T04:07:03;15.50;99.90
5759;DHT22;2904;48.788;9.196;2022-08-21T04:09:29;15.50;99.90
5759;DHT22;2904;48.788;9.196;2022-08-21T04:11:56;15.50;99.90
5759;DHT22;2904;48.788;9.196;2022-08-21T04:14:22;15.40;99.90
5759;DHT22;2904;48.788;9.196;2022-08-21T04:16:48;13.60;99.90
5759;DHT22;2904;48.788;9.196;2022-08-21T04:19:14;15.40;99.90
5759;DHT22;2904;48.788;9.196;2022-08-21T04:21:40;15.40;99.90
5759;DHT22;2904;48.788;9.196;2022-08-21T04:24:08;15.40;99.90
5759;DHT22;2904;48.788;9.196;2022-08-21T04:26:35;15.40;99.90
5759;DHT22;2904;48.788;9.196;2022-08-21T04:29:01;15.40;99.90
5759;DHT22;2904;48.788;9.196;2022-08-21T04:31:27;15.30;99.90
5759;DHT22;2904;48.788;9.196;2022-08-21T04:33:54;15.30;99.90
5759;DHT22;2904;48.788;9.196;2022-08-21T04:36:20;15.40;99.90
5759;DHT22;2904;48.788;9.196;2022-08-21T04:38:45;16.20;99.90
5759;DHT22;2904;48.788;9.196;2022-08-21T04:41:11;15.40;99.90
5759;DHT22;2904;48.788;9.196;2022-08-21T04:43:38;15.40;99.90
5759;DHT22;2904;48.788;9.196;2022-08-21T04:46:04;15.50;99.90
5759;DHT22;2904;48.788;9.196;2022-08-21T04:48:31;15.50;99.90
5759;DHT22;2904;48.788;9.196;2022-08-21T04:51:17;15.50;99.90
5759;DHT22;2904;48.788;9.196;2022-08-21T04:53:52;15.60;99.90
5759;DHT22;2904;48.788;9.196;2022-08-21T04:56:44;15.60;99.90
5759;DHT22;2904;48.788;9.196;2022-08-21T04:59:15;15.70;99.90
5759;DHT22;2904;48.788;9.196;2022-08-21T05:01:43;15.70;99.90
5759;DHT22;2904;48.788;9.196;2022-08-21T05:04:14;15.70;99.90
5759;DHT22;2904;48.788;9.196;2022-08-21T05:06:43;15.80;99.90
5759;DHT22;2904;48.788;9.196;2022-08-21T05:09:13;15.80;99.90
5759;DHT22;2904;48.788;9.196;2022-08-21T05:11:39;15.80;99.90
5759;DHT22;2904;48.788;9.196;2022-08-21T05:14:05;15.80;99.90
5759;DHT22;2904;48.788;9.196;2022-08-21T05:16:31;15.90;99.90
5759;DHT22;2904;48.788;9.196;2022-08-21T05:18:56;15.80;99.90
5759;DHT22;2904;48.788;9.196;2022-08-21T05:21:22;15.80;99.90
5759;DHT22;2904;48.788;9.196;2022-08-21T05:23:47;15.80;99.90
5759;DHT22;2904;48.788;9.196;2022-08-21T05:26:13;15.80;99.90
5759;DHT22;2904;48.788;9.196;2022-08-21T05:28:39;15.90;99.90
5759;DHT22;2904;48.788;9.196;2022-08-21T05:31:04;15.90;99.90
5759;DHT22;2904;48.788;9.196;2022-08-21T05:33:30;15.90;99.90
5759;DHT22;2904;48.788;9.196;2022-08-21T05:35:56;15.90;99.90
5759;DHT22;2904;48.788;9.196;2022-08-21T05:38:23;15.90;99.90
5759;DHT22;2904;48.788;9.196;2022-08-21T05:40:49;15.90;99.90
5759;DHT22;2904;48.788;9.196;2022-08-21T05:43:15;16.50;99.90
5759;DHT22;2904;48.788;9.196;2022-08-21T05:45:41;16.00;99.90
5759;DHT22;2904;48.788;9.196;2022-08-21T05:48:08;16.40;99.90
5759;DHT22;2904;48.788;9.196;2022-08-21T05:50:34;16.10;99.90
5759;DHT22;2904;48.788;9.196;2022-08-21T05:53:00;16.20;99.90
5759;DHT22;2904;48.788;9.196;2022-08-21T05:55:26;16.20;99.90
5759;DHT22;2904;48.788;9.196;2022-08-21T05:57:52;16.30;99.90
5759;DHT22;2904;48.788;9.196;2022-08-21T06:00:18;16.30;99.90
5759;DHT22;2904;48.788;9.196;2022-08-21T06:02:43;16.40;99.90
5759;DHT22;2904;48.788;9.196;2022-08-21T06:05:09;16.50;99.90
5759;DHT22;2904;48.788;9.196;2022-08-21T06:07:35;16.60;99.90
5759;DHT22;2904;48.788;9.196;2022-08-21T06:10:01;16.60;99.90
5759;DHT22;2904;48.788;9.196;2022-08-21T06:12:26;16.70;99.90
5759;DHT22;2904;48.788;9.196;2022-08-21T06:14:52;16.80;99.90
5759;DHT22;2904;48.788;9.196;2022-08-21T06:17:18;16.90;99.90
5759;DHT22;2904;48.788;9.196;2022-08-21T06:19:44;16.90;99.90
5759;DHT22;2904;48.788;9.196;2022-08-21T06:22:10;17.00;99.90
5759;DHT22;2904;48.788;9.196;2022-08-21T06:24:36;17.10;99.90
5759;DHT22;2904;48.788;9.196;2022-08-21T06:27:07;17.20;99.90
5759;DHT22;2904;48.788;9.196;2022-08-21T06:29:34;17.30;99.90
5759;DHT22;2904;48.788;9.196;2022-08-21T06:32:00;17.30;99.90
5759;DHT22;2904;48.788;9.196;2022-08-21T06:34:26;17.40;99.90
5759;DHT22;2904;48.788;9.196;2022-08-21T06:36:51;17.50;99.90
5759;DHT22;2904;48.788;9.196;2022-08-21T06:39:17;17.50;99.90
5759;DHT22;2904;48.788;9.196;2022-08-21T06:41:43;17.60;99.90
5759;DHT22;2904;48.788;9.196;2022-08-21T06:44:09;17.70;99.90
5759;DHT22;2904;48.788;9.196;2022-08-21T06:46:35;17.70;99.90
5759;DHT22;2904;48.788;9.196;2022-08-21T06:49:00;17.70;99.90
5759;DHT22;2904;48.788;9.196;2022-08-21T06:51:26;17.90;99.90
5759;DHT22;2904;48.788;9.196;2022-08-21T06:53:53;17.90;99.90
5759;DHT22;2904;48.788;9.196;2022-08-21T06:56:19;18.00;99.90
5759;DHT22;2904;48.788;9.196;2022-08-21T06:58:45;18.10;99.90
5759;DHT22;2904;48.788;9.196;2022-08-21T07:01:11;18.10;99.90
5759;DHT22;2904;48.788;9.196;2022-08-21T07:03:40;18.20;99.90
5759;DHT22;2904;48.788;9.196;2022-08-21T07:06:08;18.30;99.90
5759;DHT22;2904;48.788;9.196;2022-08-21T07:08:34;20.30;99.90
5759;DHT22;2904;48.788;9.196;2022-08-21T07:11:05;18.50;99.90
5759;DHT22;2904;48.788;9.196;2022-08-21T07:13:32;18.50;99.90
5759;DHT22;2904;48.788;9.196;2022-08-21T07:15:58;20.70;99.90
5759;DHT22;2904;48.788;9.196;2022-08-21T07:18:23;18.80;99.90
5759;DHT22;2904;48.788;9.196;2022-08-21T07:20:49;18.90;99.90
5759;DHT22;2904;48.788;9.196;2022-08-21T07:23:32;18.90;99.90
5759;DHT22;2904;48.788;9.196;2022-08-21T07:25:59;19.00;99.90
5759;DHT22;2904;48.788;9.196;2022-08-21T07:28:26;19.20;99.90
5759;DHT22;2904;48.788;9.196;2022-08-21T07:30:54;19.20;99.90
5759;DHT22;2904;48.788;9.196;2022-08-21T07:33:21;19.40;99.90
5759;DHT22;2904;48.788;9.196;2022-08-21T07:35:47;19.50;99.90
5759;DHT22;2904;48.788;9.196;2022-08-21T07:38:12;19.50;99.90
5759;DHT22;2904;48.788;9.196;2022-08-21T07:40:38;19.70;99.90
5759;DHT22;2904;48.788;9.196;2022-08-21T07:43:04;19.80;99.90
5759;DHT22;2904;48.788;9.196;2022-08-21T07:45:30;19.90;99.90
5759;DHT22;2904;48.788;9.196;2022-08-21T07:47:55;20.00;99.90
5759;DHT22;2904;48.788;9.196;2022-08-21T07:50:21;20.10;99.90
5759;DHT22;2904;48.788;9.196;2022-08-21T07:52:47;20.20;99.90
5759;DHT22;2904;48.788;9.196;2022-08-21T07:55:16;20.20;99.90
5759;DHT22;2904;48.788;9.196;2022-08-21T07:57:42;20.30;99.90
5759;DHT22;2904;48.788;9.196;2022-08-21T08:00:12;20.40;99.90
5759;DHT22;2904;48.788;9.196;2022-08-21T08:02:39;20.50;99.90
5759;DHT22;2904;48.788;9.196;2022-08-21T08:05:09;20.60;99.90
5759;DHT22;2904;48.788;9.196;2022-08-21T08:07:36;20.70;99.90
5759;DHT22;2904;48.788;9.196;2022-08-21T08:10:04;20.70;99.90
5759;DHT22;2904;48.788;9.196;2022-08-21T08:12:33;20.90;99.90
5759;DHT22;2904;48.788;9.196;2022-08-21T08:15:00;21.00;99.90
5759;DHT22;2904;48.788;9.196;2022-08-21T08:17:27;21.10;99.90
5759;DHT22;2904;48.788;9.196;2022-08-21T08:19:53;21.30;99.90
5759;DHT22;2904;48.788;9.196;2022-08-21T08:22:22;21.30;99.90
5759;DHT22;2904;48.788;9.196;2022-08-21T08:24:51;21.30;99.90
5759;DHT22;2904;48.788;9.196;2022-08-21T08:27:17;21.40;99.90
5759;DHT22;2904;48.788;9.196;2022-08-21T08:29:44;21.50;99.90
5759;DHT22;2904;48.788;9.196;2022-08-21T08:32:09;21.60;99.90
5759;DHT22;2904;48.788;9.196;2022-08-21T08:34:36;21.60;99.90
5759;DHT22;2904;48.788;9.196;2022-08-21T08:37:03;21.70;99.90
5759;DHT22;2904;48.788;9.196;2022-08-21T08:39:29;21.80;99.90
5759;DHT22;2904;48.788;9.196;2022-08-21T08:42:15;21.90;99.90
5759;DHT22;2904;48.788;9.196;2022-08-21T08:44:45;22.00;99.90
5759;DHT22;2904;48.788;9.196;2022-08-21T08:47:15;22.10;99.90
5759;DHT22;2904;48.788;9.196;2022-08-21T08:49:53;22.30;99.90
5759;DHT22;2904;48.788;9.196;2022-08-21T08:52:26;22.30;99.90
5759;DHT22;2904;48.788;9.196;2022-08-21T08:55:53;22.40;99.90
5759;DHT22;2904;48.788;9.196;2022-08-21T08:58:27;22.40;99.90
5759;DHT22;2904;48.788;9.196;2022-08-21T09:00:54;22.50;99.90
5759;DHT22;2904;48.788;9.196;2022-08-21T09:03:25;22.70;99.90
5759;DHT22;2904;48.788;9.196;2022-08-21T09:06:10;22.70;99.90
5759;DHT22;2904;48.788;9.196;2022-08-21T09:15:39;22.90;99.90
5759;DHT22;2904;48.788;9.196;2022-08-21T09:18:40;22.90;99.90
5759;DHT22;2904;48.788;9.196;2022-08-21T09:25:56;23.20;99.90
5759;DHT22;2904;48.788;9.196;2022-08-21T09:28:23;23.30;99.90
5759;DHT22;2904;48.788;9.196;2022-08-21T09:30:50;23.30;99.90
5759;DHT22;2904;48.788;9.196;2022-08-21T09:33:19;23.50;99.90
5759;DHT22;2904;48.788;9.196;2022-08-21T09:35:54;23.50;99.90
5759;DHT22;2904;48.788;9.196;2022-08-21T09:38:29;23.60;99.90
5759;DHT22;2904;48.788;9.196;2022-08-21T09:41:00;23.60;99.90
5759;DHT22;2904;48.788;9.196;2022-08-21T09:43:26;23.70;99.90
5759;DHT22;2904;48.788;9.196;2022-08-21T09:46:10;23.70;99.90
5759;DHT22;2904;48.788;9.196;2022-08-21T09:48:48;23.80;99.90
5759;DHT22;2904;48.788;9.196;2022-08-21T09:51:17;23.90;99.90
5759;DHT22;2904;48.788;9.196;2022-08-21T09:53:52;24.00;99.90
5759;DHT22;2904;48.788;9.196;2022-08-21T09:56:30;24.00;99.90
5759;DHT22;2904;48.788;9.196;2022-08-21T09:59:25;24.10;99.90
5759;DHT22;2904;48.788;9.196;2022-08-21T10:01:53;24.20;99.90
5759;DHT22;2904;48.788;9.196;2022-08-21T10:04:21;24.20;99.90
5759;DHT22;2904;48.788;9.196;2022-08-21T10:06:52;24.50;99.90
5759;DHT22;2904;48.788;9.196;2022-08-21T10:09:19;24.30;99.90
5759;DHT22;2904;48.788;9.196;2022-08-21T10:11:59;24.40;99.90
5759;DHT22;2904;48.788;9.196;2022-08-21T10:18:36;24.50;99.90
5759;DHT22;2904;48.788;9.196;2022-08-21T10:28:00;24.50;99.90
5759;DHT22;2904;48.788;9.196;2022-08-21T10:31:03;24.50;99.90
5759;DHT22;2904;48.788;9.196;2022-08-21T10:34:02;24.40;99.90
5759;DHT22;2904;48.788;9.196;2022-08-21T10:37:07;24.50;99.90
5759;DHT22;2904;48.788;9.196;2022-08-21T10:39:55;24.60;99.90
5759;DHT22;2904;48.788;9.196;2022-08-21T10:53:36;24.90;99.90
5759;DHT22;2904;48.788;9.196;2022-08-21T10:57:11;25.20;99.90
5759;DHT22;2904;48.788;9.196;2022-08-21T10:59:57;25.40;99.90
5759;DHT22;2904;48.788;9.196;2022-08-21T11:03:05;25.30;99.90
5759;DHT22;2904;48.788;9.196;2022-08-21T11:05:50;25.40;99.90
5759;DHT22;2904;48.788;9.196;2022-08-21T11:08:41;25.40;99.90
5759;DHT22;2904;48.788;9.196;2022-08-21T11:12:05;25.50;99.90
5759;DHT22;2904;48.788;9.196;2022-08-21T11:14:55;25.50;99.90
5759;DHT22;2904;48.788;9.196;2022-08-21T11:17:36;25.60;99.90
5759;DHT22;2904;48.788;9.196;2022-08-21T11:26:17;25.90;99.90
5759;DHT22;2904;48.788;9.196;2022-08-21T11:28:58;26.00;99.90
5759;DHT22;2904;48.788;9.196;2022-08-21T11:35:10;26.10;99.90
5759;DHT22;2904;48.788;9.196;2022-08-21T11:39:04;26.10;99.90
5759;DHT22;2904;48.788;9.196;2022-08-21T11:41:40;26.10;99.90
5759;DHT22;2904;48.788;9.196;2022-08-21T11:44:19;26.20;99.90
5759;DHT22;2904;48.788;9.196;2022-08-21T11:47:03;26.30;99.90
5759;DHT22;2904;48.788;9.196;2022-08-21T11:50:12;26.40;99.40
5759;DHT22;2904;48.788;9.196;2022-08-21T11:52:47;26.20;99.70
5759;DHT22;2904;48.788;9.196;2022-08-21T11:56:16;26.10;99.90
5759;DHT22;2904;48.788;9.196;2022-08-21T11:58:51;26.10;99.80
5759;DHT22;2904;48.788;9.196;2022-08-21T12:01:22;26.30;99.90
5759;DHT22;2904;48.788;9.196;2022-08-21T12:04:02;26.50;98.90
5759;DHT22;2904;48.788;9.196;2022-08-21T12:06:36;26.60;98.10
5759;DHT22;2904;48.788;9.196;2022-08-21T12:10:34;26.70;97.60
5759;DHT22;2904;48.788;9.196;2022-08-21T12:13:21;26.70;97.10
5759;DHT22;2904;48.788;9.196;2022-08-21T12:15:47;26.80;96.80
5759;DHT22;2904;48.788;9.196;2022-08-21T12:18:30;27.00;96.80
5759;DHT22;2904;48.788;9.196;2022-08-21T12:21:22;27.20;96.20
5759;DHT22;2904;48.788;9.196;2022-08-21T12:24:20;27.20;95.40
5759;DHT22;2904;48.788;9.196;2022-08-21T12:27:12;27.20;95.80
5759;DHT22;2904;48.788;9.196;2022-08-21T12:29:39;27.30;95.20
5759;DHT22;2904;48.788;9.196;2022-08-21T12:33:47;27.30;95.30
5759;DHT22;2904;48.788;9.196;2022-08-21T12:36:18;27.40;94.70
5759;DHT22;2904;48.788;9.196;2022-08-21T12:39:02;27.40;94.80
5759;DHT22;2904;48.788;9.196;2022-08-21T12:41:37;27.50;94.10
5759;DHT22;2904;48.788;9.196;2022-08-21T12:44:15;27.50;93.80
5759;DHT22;2904;48.788;9.196;2022-08-21T12:46:57;27.60;93.90
5759;DHT22;2904;48.788;9.196;2022-08-21T12:49:36;27.60;93.20
5759;DHT22;2904;48.788;9.196;2022-08-21T12:52:19;27.40;93.50
5759;DHT22;2904;48.788;9.196;2022-08-21T12:54:45;27.20;93.40
5759;DHT22;2904;48.788;9.196;2022-08-21T12:57:26;27.20;93.30
5759;DHT22;2904;48.788;9.196;2022-08-21T12:59:57;27.30;93.50
5759;DHT22;2904;48.788;9.196;2022-08-21T13:02:36;27.40;93.80
5759;DHT22;2904;48.788;9.196;2022-08-21T13:05:06;27.70;93.30
5759;DHT22;2904;48.788;9.196;2022-08-21T13:07:35;27.80;92.80
5759;DHT22;2904;48.788;9.196;2022-08-21T13:10:14;27.70;91.80
5759;DHT22;2904;48.788;9.196;2022-08-21T13:12:42;27.30;92.20
5759;DHT22;2904;48.788;9.196;2022-08-21T13:15:08;27.20;92.90
5759;DHT22;2904;48.788;9.196;2022-08-21T13:17:46;27.10;93.40
5759;DHT22;2904;48.788;9.196;2022-08-21T13:20:25;26.90;92.90
5759;DHT22;2904;48.788;9.196;2022-08-21T13:22:52;26.80;93.30
5759;DHT22;2904;48.788;9.196;2022-08-21T13:25:21;26.90;93.50
5759;DHT22;2904;48.788;9.196;2022-08-21T13:27:59;27.10;92.30
5759;DHT22;2904;48.788;9.196;2022-08-21T13:30:25;27.20;92.30
5759;DHT22;2904;48.788;9.196;2022-08-21T13:32:57;27.40;93.00
5759;DHT22;2904;48.788;9.196;2022-08-21T13:35:34;27.40;92.20
5759;DHT22;2904;48.788;9.196;2022-08-21T13:38:02;27.50;92.20
5759;DHT22;2904;48.788;9.196;2022-08-21T13:43:30;27.80;92.00
5759;DHT22;2904;48.788;9.196;2022-08-21T13:45:56;28.00;91.00
5759;DHT22;2904;48.788;9.196;2022-08-21T13:48:26;28.00;91.10
5759;DHT22;2904;48.788;9.196;2022-08-21T13:50:54;28.00;90.70
5759;DHT22;2904;48.788;9.196;2022-08-21T13:53:44;28.20;90.30
5759;DHT22;2904;48.788;9.196;2022-08-21T13:56:31;28.10;90.30
5759;DHT22;2904;48.788;9.196;2022-08-21T13:59:00;28.10;89.30
5759;DHT22;2904;48.788;9.196;2022-08-21T14:01:32;28.20;88.50
5759;DHT22;2904;48.788;9.196;2022-08-21T14:04:04;28.20;89.40
5759;DHT22;2904;48.788;9.196;2022-08-21T14:06:35;28.40;88.70
5759;DHT22;2904;48.788;9.196;2022-08-21T14:09:10;28.60;88.40
5759;DHT22;2904;48.788;9.196;2022-08-21T14:11:36;28.90;87.00
5759;DHT22;2904;48.788;9.196;2022-08-21T14:14:06;29.00;87.10
5759;DHT22;2904;48.788;9.196;2022-08-21T14:16:44;29.00;86.30
5759;DHT22;2904;48.788;9.196;2022-08-21T14:19:22;28.60;85.10
5759;DHT22;2904;48.788;9.196;2022-08-21T14:21:48;28.30;86.00
5759;DHT22;2904;48.788;9.196;2022-08-21T14:24:30;28.10;86.60
5759;DHT22;2904;48.788;9.196;2022-08-21T14:27:06;28.40;84.90
5759;DHT22;2904;48.788;9.196;2022-08-21T14:29:40;29.80;83.00
5759;DHT22;2904;48.788;9.196;2022-08-21T14:32:19;31.50;78.80
5759;DHT22;2904;48.788;9.196;2022-08-21T14:34:46;32.40;76.10
5759;DHT22;2904;48.788;9.196;2022-08-21T14:37:11;33.70;69.90
5759;DHT22;2904;48.788;9.196;2022-08-21T14:39:37;34.10;67.40
5759;DHT22;2904;48.788;9.196;2022-08-21T14:42:03;34.90;62.40
5759;DHT22;2904;48.788;9.196;2022-08-21T14:44:29;35.90;59.10
5759;DHT22;2904;48.788;9.196;2022-08-21T14:46:55;36.40;55.70
5759;DHT22;2904;48.788;9.196;2022-08-21T14:49:23;36.70;54.40
5759;DHT22;2904;48.788;9.196;2022-08-21T14:51:48;37.20;53.10
5759;DHT22;2904;48.788;9.196;2022-08-21T14:54:18;37.70;49.90
5759;DHT22;2904;48.788;9.196;2022-08-21T14:56:44;37.70;48.50
5759;DHT22;2904;48.788;9.196;2022-08-21T14:59:09;38.20;47.10
5759;DHT22;2904;48.788;9.196;2022-08-21T15:01:36;38.80;46.30
5759;DHT22;2904;48.788;9.196;2022-08-21T15:04:03;38.00;45.10
5759;DHT22;2904;48.788;9.196;2022-08-21T15:06:28;38.30;44.70
5759;DHT22;2904;48.788;9.196;2022-08-21T15:08:54;38.20;44.40
5759;DHT22;2904;48.788;9.196;2022-08-21T15:11:21;36.80;45.10
5759;DHT22;2904;48.788;9.196;2022-08-21T15:13:53;35.30;46.50
5759;DHT22;2904;48.788;9.196;2022-08-21T15:16:20;35.60;46.30
5759;DHT22;2904;48.788;9.196;2022-08-21T15:18:46;36.50;46.00
5759;DHT22;2904;48.788;9.196;2022-08-21T15:21:11;37.20;45.10
5759;DHT22;2904;48.788;9.196;2022-08-21T15:23:37;38.20;43.30
5759;DHT22;2904;48.788;9.196;2022-08-21T15:26:03;36.70;43.40
5759;DHT22;2904;48.788;9.196;2022-08-21T15:28:29;35.60;45.50
5759;DHT22;2904;48.788;9.196;2022-08-21T15:30:55;35.50;46.00
5759;DHT22;2904;48.788;9.196;2022-08-21T15:33:21;34.70;46.40
5759;DHT22;2904;48.788;9.196;2022-08-21T15:35:47;33.20;47.40
5759;DHT22;2904;48.788;9.196;2022-08-21T15:38:14;31.80;49.90
5759;DHT22;2904;48.788;9.196;2022-08-21T15:40:41;31.00;52.00
5759;DHT22;2904;48.788;9.196;2022-08-21T15:43:19;30.40;52.50
5759;DHT22;2904;48.788;9.196;2022-08-21T15:45:46;29.90;53.50
5759;DHT22;2904;48.788;9.196;2022-08-21T15:48:11;30.00;53.70
5759;DHT22;2904;48.788;9.196;2022-08-21T15:50:37;30.50;53.30
5759;DHT22;2904;48.788;9.196;2022-08-21T15:53:03;31.10;52.20
5759;DHT22;2904;48.788;9.196;2022-08-21T15:55:28;32.20;50.70
5759;DHT22;2904;48.788;9.196;2022-08-21T15:57:54;33.90;49.00
5759;DHT22;2904;48.788;9.196;2022-08-21T16:00:22;35.00;47.70
5759;DHT22;2904;48.788;9.196;2022-08-21T16:02:53;34.60;47.10
5759;DHT22;2904;48.788;9.196;2022-08-21T16:05:21;33.70;47.70
5759;DHT22;2904;48.788;9.196;2022-08-21T16:07:49;33.30;48.80
5759;DHT22;2904;48.788;9.196;2022-08-21T16:10:18;33.90;47.60
5759;DHT22;2904;48.788;9.196;2022-08-21T16:12:50;35.60;45.90
5759;DHT22;2904;48.788;9.196;2022-08-21T16:15:17;35.80;44.00
5759;DHT22;2904;48.788;9.196;2022-08-21T16:17:45;34.90;44.90
5759;DHT22;2904;48.788;9.196;2022-08-21T16:20:19;33.70;45.90
5759;DHT22;2904;48.788;9.196;2022-08-21T16:22:45;32.10;47.60
5759;DHT22;2904;48.788;9.196;2022-08-21T16:25:12;31.20;49.70
5759;DHT22;2904;48.788;9.196;2022-08-21T16:27:39;30.70;50.50
5759;DHT22;2904;48.788;9.196;2022-08-21T16:30:06;31.50;51.10
5759;DHT22;2904;48.788;9.196;2022-08-21T16:32:32;32.60;49.20
5759;DHT22;2904;48.788;9.196;2022-08-21T16:35:00;33.70;47.10
5759;DHT22;2904;48.788;9.196;2022-08-21T16:37:26;34.00;46.40
5759;DHT22;2904;48.788;9.196;2022-08-21T16:39:51;34.50;45.30
5759;DHT22;2904;48.788;9.196;2022-08-21T16:42:23;34.90;44.60
5759;DHT22;2904;48.788;9.196;2022-08-21T16:44:50;35.00;44.30
5759;DHT22;2904;48.788;9.196;2022-08-21T16:47:16;35.30;44.40
5759;DHT22;2904;48.788;9.196;2022-08-21T16:49:42;35.60;44.30
5759;DHT22;2904;48.788;9.196;2022-08-21T16:52:08;35.40;43.30
5759;DHT22;2904;48.788;9.196;2022-08-21T16:54:34;35.50;43.20
5759;DHT22;2904;48.788;9.196;2022-08-21T16:57:00;35.20;43.30
5759;DHT22;2904;48.788;9.196;2022-08-21T16:59:26;35.10;43.30
5759;DHT22;2904;48.788;9.196;2022-08-21T17:01:52;34.70;43.40
5759;DHT22;2904;48.788;9.196;2022-08-21T17:04:19;34.10;44.40
5759;DHT22;2904;48.788;9.196;2022-08-21T17:06:46;33.30;45.20
5759;DHT22;2904;48.788;9.196;2022-08-21T17:09:12;32.50;45.80
5759;DHT22;2904;48.788;9.196;2022-08-21T17:11:41;31.80;47.20
5759;DHT22;2904;48.788;9.196;2022-08-21T17:14:18;31.30;48.40